sensor_id;sensor_type;location;lat;lon;timestamp;P1;durP1;ratioP1;P2;durP2;ratioP2
55015;SDS011;40919;43.236;21.590;2022-08-18T00:02:20;10.40;;;7.40;;
55015;SDS011;40919;43.236;21.590;2022-08-18T00:04:50;12.52;;;7.85;;
55015;SDS011;40919;43.236;21.590;2022-08-18T00:07:21;11.00;;;7.47;;
55015;SDS011;40919;43.236;21.590;2022-08-18T00:12:17;11.95;;;6.95;;
55015;SDS011;40919;43.236;21.590;2022-08-18T00:14:50;11.23;;;6.93;;
55015;SDS011;40919;43.236;21.590;2022-08-18T00:17:16;14.00;;;7.88;;
55015;SDS011;40919;43.236;21.590;2022-08-18T00:19:43;13.13;;;7.15;;
55015;SDS011;40919;43.236;21.590;2022-08-18T00:22:10;13.75;;;7.93;;
55015;SDS011;40919;43.236;21.590;2022-08-18T00:24:38;11.93;;;7.45;;
55015;SDS011;40919;43.236;21.590;2022-08-18T00:27:04;11.07;;;6.95;;
55015;SDS011;40919;43.236;21.590;2022-08-18T00:29:31;9.50;;;7.60;;
55015;SDS011;40919;43.236;21.590;2022-08-18T00:31:57;9.63;;;7.32;;
55015;SDS011;40919;43.236;21.590;2022-08-18T00:34:23;13.23;;;9.43;;
55015;SDS011;40919;43.236;21.590;2022-08-18T00:36:49;11.75;;;8.70;;
55015;SDS011;40919;43.236;21.590;2022-08-18T00:39:15;12.02;;;8.95;;
55015;SDS011;40919;43.236;21.590;2022-08-18T00:41:42;11.13;;;8.02;;
55015;SDS011;40919;43.236;21.590;2022-08-18T00:44:08;12.40;;;7.57;;
55015;SDS011;40919;43.236;21.590;2022-08-18T00:46:35;13.90;;;7.95;;
55015;SDS011;40919;43.236;21.590;2022-08-18T00:49:02;15.90;;;7.97;;
55015;SDS011;40919;43.236;21.590;2022-08-18T00:51:40;10.23;;;7.30;;
55015;SDS011;40919;43.236;21.590;2022-08-18T00:54:20;11.95;;;7.47;;
55015;SDS011;40919;43.236;21.590;2022-08-18T00:56:51;13.50;;;7.70;;
55015;SDS011;40919;43.236;21.590;2022-08-18T01:01:56;9.43;;;7.70;;
55015;SDS011;40919;43.236;21.590;2022-08-18T01:04:35;11.18;;;7.63;;
55015;SDS011;40919;43.236;21.590;2022-08-18T01:07:31;13.68;;;7.57;;
55015;SDS011;40919;43.236;21.590;2022-08-18T01:09:59;9.95;;;7.47;;
55015;SDS011;40919;43.236;21.590;2022-08-18T01:12:27;10.98;;;8.60;;
55015;SDS011;40919;43.236;21.590;2022-08-18T01:14:54;11.30;;;7.97;;
55015;SDS011;40919;43.236;21.590;2022-08-18T01:17:21;10.07;;;7.78;;
55015;SDS011;40919;43.236;21.590;2022-08-18T01:20:06;11.15;;;8.15;;
55015;SDS011;40919;43.236;21.590;2022-08-18T01:25:28;15.00;;;8.48;;
55015;SDS011;40919;43.236;21.590;2022-08-18T01:28:14;10.13;;;7.63;;
55015;SDS011;40919;43.236;21.590;2022-08-18T01:30:48;12.27;;;8.23;;
55015;SDS011;40919;43.236;21.590;2022-08-18T01:33:22;15.02;;;7.88;;
55015;SDS011;40919;43.236;21.590;2022-08-18T01:35:57;13.20;;;8.80;;
55015;SDS011;40919;43.236;21.590;2022-08-18T01:38:34;9.57;;;7.93;;
55015;SDS011;40919;43.236;21.590;2022-08-18T01:41:00;14.02;;;8.10;;
55015;SDS011;40919;43.236;21.590;2022-08-18T01:43:26;13.02;;;7.78;;
55015;SDS011;40919;43.236;21.590;2022-08-18T01:45:52;14.15;;;8.48;;
55015;SDS011;40919;43.236;21.590;2022-08-18T01:48:18;11.95;;;8.00;;
55015;SDS011;40919;43.236;21.590;2022-08-18T01:50:44;13.25;;;7.63;;
55015;SDS011;40919;43.236;21.590;2022-08-18T01:53:13;15.02;;;8.27;;
55015;SDS011;40919;43.236;21.590;2022-08-18T01:55:40;13.90;;;7.60;;
55015;SDS011;40919;43.236;21.590;2022-08-18T01:58:09;22.48;;;8.82;;
55015;SDS011;40919;43.236;21.590;2022-08-18T02:00:36;12.13;;;9.05;;
55015;SDS011;40919;43.236;21.590;2022-08-18T02:03:03;15.65;;;7.82;;
55015;SDS011;40919;43.236;21.590;2022-08-18T02:05:37;11.23;;;8.80;;
55015;SDS011;40919;43.236;21.590;2022-08-18T02:08:05;12.65;;;8.57;;
55015;SDS011;40919;43.236;21.590;2022-08-18T02:10:32;10.98;;;7.72;;
55015;SDS011;40919;43.236;21.590;2022-08-18T02:12:58;9.32;;;7.95;;
55015;SDS011;40919;43.236;21.590;2022-08-18T02:15:25;11.70;;;7.68;;
55015;SDS011;40919;43.236;21.590;2022-08-18T02:17:52;14.48;;;7.88;;
55015;SDS011;40919;43.236;21.590;2022-08-18T02:20:18;15.85;;;7.80;;
55015;SDS011;40919;43.236;21.590;2022-08-18T02:22:45;12.80;;;8.52;;
55015;SDS011;40919;43.236;21.590;2022-08-18T02:25:12;11.05;;;7.90;;
55015;SDS011;40919;43.236;21.590;2022-08-18T02:27:39;14.27;;;8.07;;
55015;SDS011;40919;43.236;21.590;2022-08-18T02:30:07;11.38;;;8.25;;
55015;SDS011;40919;43.236;21.590;2022-08-18T02:32:36;10.40;;;8.35;;
55015;SDS011;40919;43.236;21.590;2022-08-18T02:35:02;12.57;;;7.65;;
55015;SDS011;40919;43.236;21.590;2022-08-18T02:37:30;11.45;;;8.45;;
55015;SDS011;40919;43.236;21.590;2022-08-18T02:39:56;13.88;;;8.57;;
55015;SDS011;40919;43.236;21.590;2022-08-18T02:42:22;13.38;;;8.02;;
55015;SDS011;40919;43.236;21.590;2022-08-18T02:44:49;8.95;;;7.70;;
55015;SDS011;40919;43.236;21.590;2022-08-18T02:47:19;16.27;;;9.32;;
55015;SDS011;40919;43.236;21.590;2022-08-18T02:49:46;10.90;;;7.43;;
55015;SDS011;40919;43.236;21.590;2022-08-18T02:52:12;11.00;;;8.23;;
55015;SDS011;40919;43.236;21.590;2022-08-18T02:54:46;9.35;;;8.40;;
55015;SDS011;40919;43.236;21.590;2022-08-18T02:57:28;10.65;;;8.82;;
55015;SDS011;40919;43.236;21.590;2022-08-18T02:59:56;11.23;;;8.65;;
55015;SDS011;40919;43.236;21.590;2022-08-18T03:02:22;14.15;;;8.07;;
55015;SDS011;40919;43.236;21.590;2022-08-18T03:04:48;12.70;;;8.63;;
55015;SDS011;40919;43.236;21.590;2022-08-18T03:07:15;10.85;;;8.55;;
55015;SDS011;40919;43.236;21.590;2022-08-18T03:09:41;12.18;;;8.68;;
55015;SDS011;40919;43.236;21.590;2022-08-18T03:12:08;13.35;;;9.23;;
55015;SDS011;40919;43.236;21.590;2022-08-18T03:14:35;11.68;;;9.70;;
55015;SDS011;40919;43.236;21.590;2022-08-18T03:17:04;9.50;;;7.97;;
55015;SDS011;40919;43.236;21.590;2022-08-18T03:19:32;12.20;;;8.15;;
55015;SDS011;40919;43.236;21.590;2022-08-18T03:21:58;13.25;;;8.90;;
55015;SDS011;40919;43.236;21.590;2022-08-18T03:24:25;12.30;;;8.80;;
55015;SDS011;40919;43.236;21.590;2022-08-18T03:26:53;13.60;;;8.35;;
55015;SDS011;40919;43.236;21.590;2022-08-18T03:29:23;12.30;;;8.25;;
55015;SDS011;40919;43.236;21.590;2022-08-18T03:31:49;12.10;;;9.25;;
55015;SDS011;40919;43.236;21.590;2022-08-18T03:34:17;12.15;;;8.60;;
55015;SDS011;40919;43.236;21.590;2022-08-18T03:36:44;10.15;;;8.15;;
55015;SDS011;40919;43.236;21.590;2022-08-18T03:39:11;14.35;;;9.02;;
55015;SDS011;40919;43.236;21.590;2022-08-18T03:41:39;13.07;;;8.50;;
55015;SDS011;40919;43.236;21.590;2022-08-18T03:44:07;15.82;;;9.25;;
55015;SDS011;40919;43.236;21.590;2022-08-18T03:46:34;13.30;;;8.52;;
55015;SDS011;40919;43.236;21.590;2022-08-18T03:49:01;17.33;;;9.38;;
55015;SDS011;40919;43.236;21.590;2022-08-18T03:51:29;11.57;;;8.40;;
55015;SDS011;40919;43.236;21.590;2022-08-18T03:53:57;10.68;;;8.73;;
55015;SDS011;40919;43.236;21.590;2022-08-18T03:56:30;13.70;;;8.73;;
55015;SDS011;40919;43.236;21.590;2022-08-18T03:58:58;11.85;;;7.90;;
55015;SDS011;40919;43.236;21.590;2022-08-18T04:01:29;11.65;;;8.60;;
55015;SDS011;40919;43.236;21.590;2022-08-18T04:04:01;11.02;;;8.07;;
55015;SDS011;40919;43.236;21.590;2022-08-18T04:06:33;16.38;;;8.18;;
55015;SDS011;40919;43.236;21.590;2022-08-18T04:09:09;15.35;;;8.75;;
55015;SDS011;40919;43.236;21.590;2022-08-18T04:11:39;22.70;;;9.75;;
55015;SDS011;40919;43.236;21.590;2022-08-18T04:14:07;12.50;;;9.55;;
55015;SDS011;40919;43.236;21.590;2022-08-18T04:16:34;13.40;;;9.73;;
55015;SDS011;40919;43.236;21.590;2022-08-18T04:19:02;17.27;;;10.27;;
55015;SDS011;40919;43.236;21.590;2022-08-18T04:21:30;15.73;;;9.23;;
55015;SDS011;40919;43.236;21.590;2022-08-18T04:23:57;16.00;;;9.15;;
55015;SDS011;40919;43.236;21.590;2022-08-18T04:26:28;11.45;;;8.20;;
55015;SDS011;40919;43.236;21.590;2022-08-18T04:29:00;12.27;;;8.37;;
55015;SDS011;40919;43.236;21.590;2022-08-18T04:31:26;14.10;;;8.88;;
55015;SDS011;40919;43.236;21.590;2022-08-18T04:33:55;9.63;;;7.43;;
55015;SDS011;40919;43.236;21.590;2022-08-18T04:36:22;9.88;;;8.05;;
55015;SDS011;40919;43.236;21.590;2022-08-18T04:38:49;13.25;;;8.07;;
55015;SDS011;40919;43.236;21.590;2022-08-18T04:41:15;12.95;;;8.95;;
55015;SDS011;40919;43.236;21.590;2022-08-18T04:43:42;14.60;;;8.80;;
55015;SDS011;40919;43.236;21.590;2022-08-18T04:46:08;17.58;;;9.02;;
55015;SDS011;40919;43.236;21.590;2022-08-18T04:48:39;16.50;;;8.82;;
55015;SDS011;40919;43.236;21.590;2022-08-18T04:51:10;14.15;;;8.50;;
55015;SDS011;40919;43.236;21.590;2022-08-18T04:53:38;13.27;;;8.80;;
55015;SDS011;40919;43.236;21.590;2022-08-18T04:56:16;21.98;;;10.35;;
55015;SDS011;40919;43.236;21.590;2022-08-18T04:58:54;13.60;;;9.32;;
55015;SDS011;40919;43.236;21.590;2022-08-18T05:01:25;16.05;;;8.85;;
55015;SDS011;40919;43.236;21.590;2022-08-18T05:03:54;15.90;;;9.50;;
55015;SDS011;40919;43.236;21.590;2022-08-18T05:06:24;13.60;;;8.73;;
55015;SDS011;40919;43.236;21.590;2022-08-18T05:08:53;12.63;;;8.80;;
55015;SDS011;40919;43.236;21.590;2022-08-18T05:11:24;16.63;;;8.77;;
55015;SDS011;40919;43.236;21.590;2022-08-18T05:13:57;13.25;;;8.65;;
55015;SDS011;40919;43.236;21.590;2022-08-18T05:16:24;15.15;;;8.57;;
55015;SDS011;40919;43.236;21.590;2022-08-18T05:18:51;12.15;;;8.57;;
55015;SDS011;40919;43.236;21.590;2022-08-18T05:21:20;14.38;;;8.68;;
55015;SDS011;40919;43.236;21.590;2022-08-18T05:23:47;14.85;;;8.07;;
55015;SDS011;40919;43.236;21.590;2022-08-18T05:26:14;14.55;;;8.73;;
55015;SDS011;40919;43.236;21.590;2022-08-18T05:28:42;14.68;;;8.05;;
55015;SDS011;40919;43.236;21.590;2022-08-18T05:31:09;13.52;;;8.40;;
55015;SDS011;40919;43.236;21.590;2022-08-18T05:33:44;17.48;;;9.35;;
55015;SDS011;40919;43.236;21.590;2022-08-18T05:38:53;13.18;;;8.13;;
55015;SDS011;40919;43.236;21.590;2022-08-18T05:41:32;21.08;;;8.48;;
55015;SDS011;40919;43.236;21.590;2022-08-18T05:43:59;12.30;;;7.60;;
55015;SDS011;40919;43.236;21.590;2022-08-18T05:46:41;16.30;;;7.88;;
55015;SDS011;40919;43.236;21.590;2022-08-18T05:49:09;15.93;;;8.73;;
55015;SDS011;40919;43.236;21.590;2022-08-18T05:51:40;13.63;;;8.73;;
55015;SDS011;40919;43.236;21.590;2022-08-18T05:54:09;17.30;;;9.10;;
55015;SDS011;40919;43.236;21.590;2022-08-18T05:56:56;13.43;;;8.27;;
55015;SDS011;40919;43.236;21.590;2022-08-18T06:02:10;13.90;;;8.88;;
55015;SDS011;40919;43.236;21.590;2022-08-18T06:08:08;20.42;;;8.80;;
55015;SDS011;40919;43.236;21.590;2022-08-18T06:10:36;13.85;;;7.80;;
55015;SDS011;40919;43.236;21.590;2022-08-18T06:13:07;10.70;;;8.02;;
55015;SDS011;40919;43.236;21.590;2022-08-18T06:18:26;13.90;;;8.20;;
55015;SDS011;40919;43.236;21.590;2022-08-18T06:20:59;13.85;;;7.63;;
55015;SDS011;40919;43.236;21.590;2022-08-18T06:32:41;16.50;;;8.35;;
55015;SDS011;40919;43.236;21.590;2022-08-18T06:36:05;15.18;;;9.85;;
55015;SDS011;40919;43.236;21.590;2022-08-18T06:43:58;14.88;;;8.23;;
55015;SDS011;40919;43.236;21.590;2022-08-18T06:46:27;13.88;;;7.60;;
55015;SDS011;40919;43.236;21.590;2022-08-18T06:49:05;15.00;;;8.20;;
55015;SDS011;40919;43.236;21.590;2022-08-18T06:51:36;12.30;;;7.82;;
55015;SDS011;40919;43.236;21.590;2022-08-18T06:54:24;13.32;;;7.32;;
55015;SDS011;40919;43.236;21.590;2022-08-18T06:56:53;11.18;;;8.20;;
55015;SDS011;40919;43.236;21.590;2022-08-18T06:59:25;9.82;;;7.55;;
55015;SDS011;40919;43.236;21.590;2022-08-18T07:01:59;15.25;;;9.10;;
55015;SDS011;40919;43.236;21.590;2022-08-18T07:05:06;15.15;;;7.60;;
55015;SDS011;40919;43.236;21.590;2022-08-18T07:07:45;18.52;;;8.18;;
55015;SDS011;40919;43.236;21.590;2022-08-18T07:13:06;11.23;;;7.40;;
55015;SDS011;40919;43.236;21.590;2022-08-18T07:15:43;10.63;;;7.97;;
55015;SDS011;40919;43.236;21.590;2022-08-18T07:18:10;9.45;;;7.22;;
55015;SDS011;40919;43.236;21.590;2022-08-18T07:20:41;14.80;;;8.40;;
55015;SDS011;40919;43.236;21.590;2022-08-18T07:23:19;13.02;;;7.82;;
55015;SDS011;40919;43.236;21.590;2022-08-18T07:26:10;9.98;;;7.93;;
55015;SDS011;40919;43.236;21.590;2022-08-18T07:28:49;10.52;;;7.10;;
55015;SDS011;40919;43.236;21.590;2022-08-18T07:34:32;13.55;;;7.88;;
55015;SDS011;40919;43.236;21.590;2022-08-18T07:36:45;18.13;;;9.50;;
55015;SDS011;40919;43.236;21.590;2022-08-18T07:39:30;16.58;;;8.23;;
55015;SDS011;40919;43.236;21.590;2022-08-18T07:47:48;9.88;;;6.82;;
55015;SDS011;40919;43.236;21.590;2022-08-18T07:50:37;10.32;;;9.18;;
55015;SDS011;40919;43.236;21.590;2022-08-18T07:53:29;11.40;;;7.45;;
55015;SDS011;40919;43.236;21.590;2022-08-18T07:56:04;13.45;;;7.20;;
55015;SDS011;40919;43.236;21.590;2022-08-18T07:58:46;10.13;;;7.82;;
55015;SDS011;40919;43.236;21.590;2022-08-18T08:01:33;13.88;;;9.65;;
55015;SDS011;40919;43.236;21.590;2022-08-18T08:07:00;9.75;;;6.30;;
55015;SDS011;40919;43.236;21.590;2022-08-18T08:12:50;11.00;;;7.70;;
55015;SDS011;40919;43.236;21.590;2022-08-18T08:14:49;12.00;;;8.13;;
55015;SDS011;40919;43.236;21.590;2022-08-18T08:22:23;13.82;;;10.32;;
55015;SDS011;40919;43.236;21.590;2022-08-18T08:30:04;12.68;;;11.15;;
55015;SDS011;40919;43.236;21.590;2022-08-18T08:32:36;11.88;;;9.18;;
55015;SDS011;40919;43.236;21.590;2022-08-18T08:35:32;13.80;;;8.45;;
55015;SDS011;40919;43.236;21.590;2022-08-18T08:37:53;11.48;;;7.80;;
55015;SDS011;40919;43.236;21.590;2022-08-18T08:40:45;12.65;;;7.65;;
55015;SDS011;40919;43.236;21.590;2022-08-18T08:43:09;12.07;;;8.90;;
55015;SDS011;40919;43.236;21.590;2022-08-18T08:45:37;13.77;;;7.32;;
55015;SDS011;40919;43.236;21.590;2022-08-18T08:48:19;10.52;;;7.90;;
55015;SDS011;40919;43.236;21.590;2022-08-18T08:50:59;12.15;;;8.93;;
55015;SDS011;40919;43.236;21.590;2022-08-18T08:55:54;10.93;;;7.28;;
55015;SDS011;40919;43.236;21.590;2022-08-18T08:58:23;11.45;;;7.22;;
55015;SDS011;40919;43.236;21.590;2022-08-18T09:00:53;9.32;;;6.20;;
55015;SDS011;40919;43.236;21.590;2022-08-18T09:06:01;8.82;;;5.32;;
55015;SDS011;40919;43.236;21.590;2022-08-18T09:08:32;9.18;;;5.47;;
55015;SDS011;40919;43.236;21.590;2022-08-18T09:13:58;8.38;;;6.15;;
55015;SDS011;40919;43.236;21.590;2022-08-18T09:19:08;8.45;;;5.93;;
55015;SDS011;40919;43.236;21.590;2022-08-18T09:26:50;11.68;;;6.28;;
55015;SDS011;40919;43.236;21.590;2022-08-18T09:29:45;10.00;;;6.90;;
55015;SDS011;40919;43.236;21.590;2022-08-18T09:37:38;9.70;;;6.07;;
55015;SDS011;40919;43.236;21.590;2022-08-18T09:40:17;11.18;;;6.20;;
55015;SDS011;40919;43.236;21.590;2022-08-18T09:43:06;11.88;;;5.70;;
55015;SDS011;40919;43.236;21.590;2022-08-18T09:48:20;7.13;;;5.03;;
55015;SDS011;40919;43.236;21.590;2022-08-18T09:53:36;10.75;;;5.03;;
55015;SDS011;40919;43.236;21.590;2022-08-18T09:56:03;8.65;;;5.03;;
55015;SDS011;40919;43.236;21.590;2022-08-18T10:06:39;8.57;;;5.22;;
55015;SDS011;40919;43.236;21.590;2022-08-18T10:09:19;8.02;;;5.75;;
55015;SDS011;40919;43.236;21.590;2022-08-18T10:14:56;8.07;;;6.30;;
55015;SDS011;40919;43.236;21.590;2022-08-18T10:21:10;14.00;;;10.05;;
55015;SDS011;40919;43.236;21.590;2022-08-18T10:24:12;15.23;;;11.98;;
55015;SDS011;40919;43.236;21.590;2022-08-18T10:28:54;13.93;;;7.95;;
55015;SDS011;40919;43.236;21.590;2022-08-18T10:31:21;10.05;;;6.05;;
55015;SDS011;40919;43.236;21.590;2022-08-18T10:33:55;11.05;;;6.97;;
55015;SDS011;40919;43.236;21.590;2022-08-18T10:39:29;6.03;;;5.20;;
55015;SDS011;40919;43.236;21.590;2022-08-18T10:42:26;9.68;;;6.35;;
55015;SDS011;40919;43.236;21.590;2022-08-18T10:44:44;6.97;;;5.57;;
55015;SDS011;40919;43.236;21.590;2022-08-18T10:47:23;12.70;;;5.90;;
55015;SDS011;40919;43.236;21.590;2022-08-18T10:49:49;5.78;;;4.85;;
55015;SDS011;40919;43.236;21.590;2022-08-18T10:52:37;9.55;;;4.57;;
55015;SDS011;40919;43.236;21.590;2022-08-18T10:55:24;6.97;;;4.25;;
55015;SDS011;40919;43.236;21.590;2022-08-18T10:58:03;5.65;;;4.40;;
55015;SDS011;40919;43.236;21.590;2022-08-18T11:03:11;8.73;;;4.10;;
55015;SDS011;40919;43.236;21.590;2022-08-18T11:05:39;10.00;;;5.47;;
55015;SDS011;40919;43.236;21.590;2022-08-18T11:08:07;7.65;;;4.32;;
55015;SDS011;40919;43.236;21.590;2022-08-18T11:10:41;8.33;;;6.57;;
55015;SDS011;40919;43.236;21.590;2022-08-18T11:16:01;11.40;;;4.53;;
55015;SDS011;40919;43.236;21.590;2022-08-18T11:18:30;6.05;;;3.55;;
55015;SDS011;40919;43.236;21.590;2022-08-18T11:23:42;6.68;;;4.00;;
55015;SDS011;40919;43.236;21.590;2022-08-18T11:26:12;7.75;;;3.80;;
55015;SDS011;40919;43.236;21.590;2022-08-18T11:28:38;8.65;;;4.30;;
55015;SDS011;40919;43.236;21.590;2022-08-18T11:31:05;6.97;;;4.57;;
55015;SDS011;40919;43.236;21.590;2022-08-18T11:33:31;4.63;;;3.13;;
55015;SDS011;40919;43.236;21.590;2022-08-18T11:35:57;8.05;;;4.60;;
55015;SDS011;40919;43.236;21.590;2022-08-18T11:38:24;6.85;;;4.00;;
55015;SDS011;40919;43.236;21.590;2022-08-18T11:41:09;5.82;;;3.28;;
55015;SDS011;40919;43.236;21.590;2022-08-18T11:43:37;6.43;;;3.70;;
55015;SDS011;40919;43.236;21.590;2022-08-18T11:51:26;5.55;;;4.45;;
55015;SDS011;40919;43.236;21.590;2022-08-18T11:56:27;6.45;;;3.97;;
55015;SDS011;40919;43.236;21.590;2022-08-18T11:58:57;4.82;;;3.40;;
55015;SDS011;40919;43.236;21.590;2022-08-18T12:09:18;6.65;;;3.75;;
55015;SDS011;40919;43.236;21.590;2022-08-18T12:11:53;5.63;;;3.53;;
55015;SDS011;40919;43.236;21.590;2022-08-18T12:14:21;6.60;;;3.50;;
55015;SDS011;40919;43.236;21.590;2022-08-18T12:16:48;5.07;;;3.53;;
55015;SDS011;40919;43.236;21.590;2022-08-18T12:19:15;4.30;;;3.10;;
55015;SDS011;40919;43.236;21.590;2022-08-18T12:21:47;5.22;;;3.45;;
55015;SDS011;40919;43.236;21.590;2022-08-18T12:24:35;5.78;;;3.80;;
55015;SDS011;40919;43.236;21.590;2022-08-18T12:27:00;6.15;;;3.63;;
55015;SDS011;40919;43.236;21.590;2022-08-18T12:29:27;6.22;;;3.25;;
55015;SDS011;40919;43.236;21.590;2022-08-18T12:31:55;4.43;;;3.40;;
55015;SDS011;40919;43.236;21.590;2022-08-18T12:34:22;5.97;;;3.67;;
55015;SDS011;40919;43.236;21.590;2022-08-18T12:36:50;6.10;;;4.30;;
55015;SDS011;40919;43.236;21.590;2022-08-18T12:39:18;5.45;;;4.03;;
55015;SDS011;40919;43.236;21.590;2022-08-18T12:41:49;5.40;;;3.78;;
55015;SDS011;40919;43.236;21.590;2022-08-18T12:44:15;8.15;;;3.97;;
55015;SDS011;40919;43.236;21.590;2022-08-18T12:46:41;6.88;;;4.22;;
55015;SDS011;40919;43.236;21.590;2022-08-18T12:49:15;8.25;;;5.22;;
55015;SDS011;40919;43.236;21.590;2022-08-18T12:51:42;6.75;;;4.53;;
55015;SDS011;40919;43.236;21.590;2022-08-18T12:54:08;6.63;;;3.60;;
55015;SDS011;40919;43.236;21.590;2022-08-18T12:56:34;5.10;;;4.20;;
55015;SDS011;40919;43.236;21.590;2022-08-18T12:59:02;6.15;;;4.18;;
55015;SDS011;40919;43.236;21.590;2022-08-18T13:01:29;5.20;;;4.00;;
55015;SDS011;40919;43.236;21.590;2022-08-18T13:03:55;5.18;;;3.88;;
55015;SDS011;40919;43.236;21.590;2022-08-18T13:06:23;6.95;;;4.38;;
55015;SDS011;40919;43.236;21.590;2022-08-18T13:08:50;7.32;;;3.65;;
55015;SDS011;40919;43.236;21.590;2022-08-18T13:11:17;6.35;;;4.50;;
55015;SDS011;40919;43.236;21.590;2022-08-18T13:13:44;6.32;;;3.45;;
55015;SDS011;40919;43.236;21.590;2022-08-18T13:16:10;5.93;;;3.30;;
55015;SDS011;40919;43.236;21.590;2022-08-18T13:18:38;7.05;;;3.10;;
55015;SDS011;40919;43.236;21.590;2022-08-18T13:21:06;7.05;;;3.40;;
55015;SDS011;40919;43.236;21.590;2022-08-18T13:23:32;6.85;;;3.63;;
55015;SDS011;40919;43.236;21.590;2022-08-18T13:25:59;4.13;;;3.20;;
55015;SDS011;40919;43.236;21.590;2022-08-18T13:28:26;10.40;;;4.20;;
55015;SDS011;40919;43.236;21.590;2022-08-18T13:30:53;5.50;;;3.70;;
55015;SDS011;40919;43.236;21.590;2022-08-18T13:33:19;5.22;;;3.28;;
55015;SDS011;40919;43.236;21.590;2022-08-18T13:35:45;5.60;;;3.30;;
55015;SDS011;40919;43.236;21.590;2022-08-18T13:38:12;5.78;;;3.00;;
55015;SDS011;40919;43.236;21.590;2022-08-18T13:40:39;5.82;;;3.20;;
55015;SDS011;40919;43.236;21.590;2022-08-18T13:43:06;5.18;;;2.97;;
55015;SDS011;40919;43.236;21.590;2022-08-18T13:45:34;6.82;;;3.28;;
55015;SDS011;40919;43.236;21.590;2022-08-18T13:48:00;4.22;;;3.08;;
55015;SDS011;40919;43.236;21.590;2022-08-18T13:50:26;5.78;;;3.85;;
55015;SDS011;40919;43.236;21.590;2022-08-18T13:52:52;6.18;;;4.15;;
55015;SDS011;40919;43.236;21.590;2022-08-18T13:55:18;9.13;;;3.50;;
55015;SDS011;40919;43.236;21.590;2022-08-18T13:57:45;6.45;;;3.97;;
55015;SDS011;40919;43.236;21.590;2022-08-18T14:00:17;5.43;;;4.03;;
55015;SDS011;40919;43.236;21.590;2022-08-18T14:02:46;8.55;;;3.53;;
55015;SDS011;40919;43.236;21.590;2022-08-18T14:05:14;7.25;;;4.30;;
55015;SDS011;40919;43.236;21.590;2022-08-18T14:07:40;9.70;;;3.67;;
55015;SDS011;40919;43.236;21.590;2022-08-18T14:10:07;6.85;;;3.78;;
55015;SDS011;40919;43.236;21.590;2022-08-18T14:12:34;5.20;;;3.22;;
55015;SDS011;40919;43.236;21.590;2022-08-18T14:15:03;5.60;;;3.50;;
55015;SDS011;40919;43.236;21.590;2022-08-18T14:17:31;4.40;;;3.05;;
55015;SDS011;40919;43.236;21.590;2022-08-18T14:19:59;6.95;;;4.00;;
55015;SDS011;40919;43.236;21.590;2022-08-18T14:22:44;7.00;;;4.28;;
55015;SDS011;40919;43.236;21.590;2022-08-18T14:25:28;5.15;;;3.00;;
55015;SDS011;40919;43.236;21.590;2022-08-18T14:28:12;4.47;;;2.88;;
55015;SDS011;40919;43.236;21.590;2022-08-18T14:30:39;3.80;;;2.70;;
55015;SDS011;40919;43.236;21.590;2022-08-18T14:33:05;5.72;;;2.92;;
55015;SDS011;40919;43.236;21.590;2022-08-18T14:35:32;4.93;;;3.38;;
55015;SDS011;40919;43.236;21.590;2022-08-18T14:37:59;5.55;;;4.10;;
55015;SDS011;40919;43.236;21.590;2022-08-18T14:40:26;7.20;;;3.92;;
55015;SDS011;40919;43.236;21.590;2022-08-18T14:42:53;5.15;;;3.72;;
55015;SDS011;40919;43.236;21.590;2022-08-18T14:45:19;9.00;;;4.47;;
55015;SDS011;40919;43.236;21.590;2022-08-18T14:47:45;7.18;;;3.53;;
55015;SDS011;40919;43.236;21.590;2022-08-18T14:50:11;5.95;;;3.70;;
55015;SDS011;40919;43.236;21.590;2022-08-18T14:52:40;9.10;;;5.57;;
55015;SDS011;40919;43.236;21.590;2022-08-18T14:55:08;7.25;;;3.97;;
55015;SDS011;40919;43.236;21.590;2022-08-18T14:57:36;8.27;;;6.18;;
55015;SDS011;40919;43.236;21.590;2022-08-18T15:00:04;8.95;;;6.30;;
55015;SDS011;40919;43.236;21.590;2022-08-18T15:02:38;5.65;;;4.13;;
55015;SDS011;40919;43.236;21.590;2022-08-18T15:05:05;6.40;;;3.05;;
55015;SDS011;40919;43.236;21.590;2022-08-18T15:07:33;8.15;;;4.50;;
55015;SDS011;40919;43.236;21.590;2022-08-18T15:10:02;5.53;;;3.70;;
55015;SDS011;40919;43.236;21.590;2022-08-18T15:12:38;6.57;;;4.93;;
55015;SDS011;40919;43.236;21.590;2022-08-18T15:15:06;7.22;;;3.47;;
55015;SDS011;40919;43.236;21.590;2022-08-18T15:17:37;5.32;;;3.22;;
55015;SDS011;40919;43.236;21.590;2022-08-18T15:20:05;5.53;;;3.75;;
55015;SDS011;40919;43.236;21.590;2022-08-18T15:22:36;4.57;;;2.97;;
55015;SDS011;40919;43.236;21.590;2022-08-18T15:25:24;5.35;;;3.22;;
55015;SDS011;40919;43.236;21.590;2022-08-18T15:28:14;4.97;;;4.20;;
55015;SDS011;40919;43.236;21.590;2022-08-18T15:30:47;9.68;;;3.30;;
55015;SDS011;40919;43.236;21.590;2022-08-18T15:33:15;9.85;;;4.50;;
55015;SDS011;40919;43.236;21.590;2022-08-18T15:35:42;9.98;;;3.30;;
55015;SDS011;40919;43.236;21.590;2022-08-18T15:38:12;4.30;;;2.60;;
55015;SDS011;40919;43.236;21.590;2022-08-18T15:40:46;4.93;;;2.72;;
55015;SDS011;40919;43.236;21.590;2022-08-18T15:43:14;6.28;;;3.25;;
55015;SDS011;40919;43.236;21.590;2022-08-18T15:45:42;5.63;;;3.40;;
55015;SDS011;40919;43.236;21.590;2022-08-18T15:48:12;5.13;;;3.17;;
55015;SDS011;40919;43.236;21.590;2022-08-18T15:50:39;5.10;;;2.72;;
55015;SDS011;40919;43.236;21.590;2022-08-18T15:53:08;4.90;;;3.00;;
55015;SDS011;40919;43.236;21.590;2022-08-18T15:55:37;5.47;;;3.50;;
55015;SDS011;40919;43.236;21.590;2022-08-18T15:58:04;5.55;;;3.30;;
55015;SDS011;40919;43.236;21.590;2022-08-18T16:00:31;6.50;;;3.50;;
55015;SDS011;40919;43.236;21.590;2022-08-18T16:03:02;7.10;;;3.33;;
55015;SDS011;40919;43.236;21.590;2022-08-18T16:05:33;6.50;;;3.30;;
55015;SDS011;40919;43.236;21.590;2022-08-18T16:08:02;6.70;;;2.95;;
55015;SDS011;40919;43.236;21.590;2022-08-18T16:10:31;9.85;;;4.15;;
55015;SDS011;40919;43.236;21.590;2022-08-18T16:12:58;10.82;;;4.00;;
55015;SDS011;40919;43.236;21.590;2022-08-18T16:15:28;8.77;;;3.53;;
55015;SDS011;40919;43.236;21.590;2022-08-18T16:17:56;5.22;;;3.45;;
55015;SDS011;40919;43.236;21.590;2022-08-18T16:20:22;7.43;;;3.95;;
55015;SDS011;40919;43.236;21.590;2022-08-18T16:22:49;6.05;;;3.67;;
55015;SDS011;40919;43.236;21.590;2022-08-18T16:25:15;6.78;;;3.47;;
55015;SDS011;40919;43.236;21.590;2022-08-18T16:27:45;6.43;;;3.30;;
55015;SDS011;40919;43.236;21.590;2022-08-18T16:30:16;5.85;;;3.65;;
55015;SDS011;40919;43.236;21.590;2022-08-18T16:32:42;6.32;;;3.50;;
55015;SDS011;40919;43.236;21.590;2022-08-18T16:35:09;6.35;;;4.13;;
55015;SDS011;40919;43.236;21.590;2022-08-18T16:37:36;8.52;;;3.85;;
55015;SDS011;40919;43.236;21.590;2022-08-18T16:40:03;10.43;;;5.40;;
55015;SDS011;40919;43.236;21.590;2022-08-18T16:42:29;8.98;;;6.03;;
55015;SDS011;40919;43.236;21.590;2022-08-18T16:45:00;9.35;;;5.15;;
55015;SDS011;40919;43.236;21.590;2022-08-18T16:47:27;8.88;;;4.57;;
55015;SDS011;40919;43.236;21.590;2022-08-18T16:49:54;13.15;;;5.18;;
55015;SDS011;40919;43.236;21.590;2022-08-18T16:52:20;10.25;;;6.82;;
55015;SDS011;40919;43.236;21.590;2022-08-18T16:54:47;10.85;;;7.35;;
55015;SDS011;40919;43.236;21.590;2022-08-18T16:57:13;8.63;;;5.80;;
55015;SDS011;40919;43.236;21.590;2022-08-18T17:00:02;8.52;;;5.07;;
55015;SDS011;40919;43.236;21.590;2022-08-18T17:02:47;12.50;;;6.07;;